createdAt,value
2023-03-12T00:02:08.297Z,0.05
2023-03-12T00:04:36.186Z,0.09
2023-03-12T00:07:03.533Z,0.13
2023-03-12T00:09:30.165Z,0.16
2023-03-12T00:11:56.695Z,0.10
2023-03-12T00:14:23.205Z,0.08
2023-03-12T00:16:49.690Z,0.08
2023-03-12T00:19:16.208Z,0.12
2023-03-12T00:21:42.731Z,0.14
2023-03-12T00:24:09.288Z,0.10
2023-03-12T00:26:35.857Z,0.06
2023-03-12T00:31:42.824Z,0.01
2023-03-12T00:34:09.374Z,-0.11
2023-03-12T00:36:35.918Z,-0.30
2023-03-12T00:39:02.470Z,-0.31
2023-03-12T00:41:30.396Z,-0.38
2023-03-12T00:43:57.293Z,-0.48
2023-03-12T00:46:23.898Z,-0.54
2023-03-12T00:48:50.719Z,-0.56
2023-03-12T00:51:17.369Z,-0.70
2023-03-12T00:53:43.929Z,-0.76
2023-03-12T00:56:10.525Z,-0.84
2023-03-12T00:58:37.113Z,-0.92
2023-03-12T01:01:03.802Z,-0.94
2023-03-12T01:03:30.449Z,-1.05
2023-03-12T01:05:56.939Z,-1.04
2023-03-12T01:08:24.469Z,-1.04
2023-03-12T01:10:51.438Z,-1.15
2023-03-12T01:13:18.017Z,-1.40
2023-03-12T01:18:24.921Z,-1.41
2023-03-12T01:20:51.512Z,-1.41
2023-03-12T01:23:18.095Z,-1.44
2023-03-12T01:25:44.662Z,-1.49
2023-03-12T01:28:11.164Z,-1.51
2023-03-12T01:30:37.679Z,-1.52
2023-03-12T01:33:04.373Z,-1.53
2023-03-12T01:35:31.079Z,-1.65
2023-03-12T01:37:57.692Z,-1.67
2023-03-12T01:40:29.156Z,-1.61
2023-03-12T01:42:57.595Z,-1.69
2023-03-12T01:45:43.124Z,-1.88
2023-03-12T01:48:10.519Z,-1.95
2023-03-12T01:50:37.161Z,-1.92
2023-03-12T01:53:03.690Z,-2.09
2023-03-12T01:55:30.412Z,-2.17
2023-03-12T01:57:58.364Z,-2.18
2023-03-12T02:04:21.458Z,-2.42
2023-03-12T02:07:14.156Z,-2.44
2023-03-12T02:09:45.395Z,-2.40
2023-03-12T02:12:11.939Z,-2.36
2023-03-12T02:14:38.808Z,-2.34
2023-03-12T02:17:55.572Z,-2.30
2023-03-12T02:20:28.170Z,-2.31
2023-03-12T02:23:20.773Z,-2.36
2023-03-12T02:25:49.712Z,-2.33
2023-03-12T02:28:18.407Z,-2.26
2023-03-12T02:30:47.199Z,-2.26
2023-03-12T02:33:15.378Z,-2.24
2023-03-12T02:35:42.767Z,-2.25
2023-03-12T02:38:27.795Z,-2.24
2023-03-12T02:40:55.885Z,-2.28
2023-03-12T02:43:22.949Z,-2.30
2023-03-12T02:45:49.667Z,-2.36
2023-03-12T02:48:16.245Z,-2.37
2023-03-12T02:50:42.811Z,-2.39
2023-03-12T02:53:09.373Z,-2.36
2023-03-12T02:55:35.871Z,-2.31
2023-03-12T02:58:02.378Z,-2.35
2023-03-12T03:00:32.220Z,-2.38
2023-03-12T03:03:02.147Z,-2.38
2023-03-12T03:05:28.681Z,-2.49
2023-03-12T03:07:55.196Z,-2.52
2023-03-12T03:10:21.686Z,-2.54
2023-03-12T03:12:48.224Z,-2.61
2023-03-12T03:15:14.750Z,-2.67
2023-03-12T03:17:41.265Z,-2.68
2023-03-12T03:20:11.245Z,-2.67
2023-03-12T03:22:38.376Z,-2.61
2023-03-12T03:25:06.520Z,-2.57
2023-03-12T03:27:33.527Z,-2.63
2023-03-12T03:30:00.012Z,-2.76
2023-03-12T03:32:26.656Z,-2.79
2023-03-12T03:34:53.221Z,-2.82
2023-03-12T03:37:19.971Z,-2.86
2023-03-12T03:39:46.529Z,-2.82
2023-03-12T03:42:13.019Z,-2.74
2023-03-12T03:44:39.532Z,-2.75
2023-03-12T03:47:06.346Z,-2.94
2023-03-12T03:49:32.878Z,-3.01
2023-03-12T03:51:59.404Z,-3.07
2023-03-12T03:54:26.021Z,-3.09
2023-03-12T03:57:50.108Z,-3.05
2023-03-12T04:00:18.098Z,-3.05
2023-03-12T04:02:44.856Z,-3.07
2023-03-12T04:05:11.931Z,-3.07
2023-03-12T04:07:38.436Z,-3.09
2023-03-12T04:11:18.288Z,-3.17
2023-03-12T04:13:45.156Z,-3.15
2023-03-12T04:16:12.203Z,-3.13
2023-03-12T04:21:01.792Z,-3.11
2023-03-12T04:23:28.340Z,-3.15
2023-03-12T04:25:54.820Z,-3.18
2023-03-12T04:28:21.424Z,-3.16
2023-03-12T04:30:54.881Z,-3.10
2023-03-12T04:33:21.476Z,-3.11
2023-03-12T04:35:54.260Z,-3.16
2023-03-12T04:38:25.103Z,-3.20
2023-03-12T04:41:01.943Z,-3.16
2023-03-12T04:43:29.377Z,-3.13
2023-03-12T04:45:56.521Z,-3.12
2023-03-12T04:48:23.555Z,-3.11
2023-03-12T04:50:50.089Z,-3.08
2023-03-12T04:55:23.007Z,-3.10
2023-03-12T04:57:49.604Z,-3.13
2023-03-12T05:00:16.507Z,-3.20
2023-03-12T05:02:43.072Z,-3.31
2023-03-12T05:05:11.338Z,-3.39
2023-03-12T05:07:37.842Z,-3.36
2023-03-12T05:10:04.515Z,-3.30
2023-03-12T05:12:31.028Z,-3.28
2023-03-12T05:14:57.629Z,-3.28
2023-03-12T05:17:24.132Z,-3.25
2023-03-12T05:19:50.690Z,-3.25
2023-03-12T05:22:17.496Z,-3.29
2023-03-12T05:24:44.148Z,-3.31
2023-03-12T05:27:11.688Z,-3.41
2023-03-12T05:29:38.280Z,-3.48
2023-03-12T05:32:04.925Z,-3.58
2023-03-12T05:34:31.511Z,-3.58
2023-03-12T05:36:58.220Z,-3.57
2023-03-12T05:39:24.740Z,-3.55
2023-03-12T05:42:04.074Z,-3.55
2023-03-12T05:44:30.747Z,-3.58
2023-03-12T05:49:08.594Z,-3.62
2023-03-12T05:51:35.321Z,-3.61
2023-03-12T05:54:02.241Z,-3.57
2023-03-12T05:56:28.797Z,-3.55
2023-03-12T05:58:55.309Z,-3.60
2023-03-12T06:01:23.406Z,-3.57
2023-03-12T06:03:49.978Z,-3.57
2023-03-12T06:06:16.592Z,-3.58
2023-03-12T06:08:43.577Z,-3.58
2023-03-12T06:11:10.258Z,-3.55
2023-03-12T06:13:36.820Z,-3.53
2023-03-12T06:16:08.068Z,-3.57
2023-03-12T06:18:35.294Z,-3.52
2023-03-12T06:23:52.534Z,-2.73
2023-03-12T06:26:19.834Z,-2.40
2023-03-12T06:28:46.697Z,-1.77
2023-03-12T06:32:57.159Z,-1.28
2023-03-12T06:35:23.787Z,-0.92
2023-03-12T06:37:50.375Z,-0.80
2023-03-12T06:40:17.888Z,-0.54
2023-03-12T06:42:44.455Z,-0.45
2023-03-12T06:45:11.097Z,-0.41
2023-03-12T06:47:37.640Z,-0.10
2023-03-12T06:50:04.382Z,0.09
2023-03-12T06:52:30.973Z,0.48
2023-03-12T06:54:57.457Z,0.46
2023-03-12T06:57:23.988Z,0.53
2023-03-12T06:59:50.796Z,0.74
2023-03-12T07:02:17.994Z,0.95
2023-03-12T07:04:44.606Z,1.09
2023-03-12T07:07:12.085Z,1.28
2023-03-12T07:09:38.722Z,1.62
2023-03-12T07:12:05.414Z,1.88
2023-03-12T07:14:31.946Z,2.13
2023-03-12T07:16:59.080Z,2.45
2023-03-12T07:19:25.619Z,2.53
2023-03-12T07:21:52.148Z,2.37
2023-03-12T07:24:18.713Z,2.43
2023-03-12T07:26:46.127Z,2.44
2023-03-12T07:29:12.704Z,2.49
2023-03-12T07:31:39.309Z,2.35
2023-03-12T07:34:06.496Z,2.25
2023-03-12T07:36:33.568Z,2.26
2023-03-12T07:39:00.220Z,2.29
2023-03-12T07:41:26.892Z,2.36
2023-03-12T07:43:53.426Z,2.33
2023-03-12T07:46:20.083Z,2.56
2023-03-12T07:50:32.596Z,2.66
2023-03-12T07:55:38.801Z,2.55
2023-03-12T07:58:05.590Z,2.59
2023-03-12T08:00:32.477Z,2.52
2023-03-12T08:04:40.248Z,2.81
2023-03-12T08:07:09.147Z,2.67
2023-03-12T08:09:35.887Z,2.73
2023-03-12T08:12:02.614Z,2.98
2023-03-12T08:14:31.764Z,2.83
2023-03-12T08:16:58.742Z,2.59
2023-03-12T08:19:25.350Z,2.72
2023-03-12T08:21:53.289Z,2.68
2023-03-12T08:24:21.102Z,2.85
2023-03-12T08:26:48.035Z,2.76
2023-03-12T08:29:14.791Z,2.80
2023-03-12T08:31:53.762Z,3.12
2023-03-12T08:34:27.938Z,3.30
2023-03-12T08:36:54.454Z,3.36
2023-03-12T08:39:21.156Z,3.60
2023-03-12T08:41:48.018Z,3.71
2023-03-12T08:44:14.603Z,3.81
2023-03-12T08:46:41.121Z,3.89
2023-03-12T08:49:07.710Z,4.14
2023-03-12T08:51:34.227Z,4.28
2023-03-12T08:54:00.806Z,4.31
2023-03-12T08:56:27.399Z,4.21
2023-03-12T08:58:53.986Z,4.15
2023-03-12T09:01:20.568Z,4.13
2023-03-12T09:03:49.584Z,4.00
2023-03-12T09:06:17.048Z,4.17
2023-03-12T09:08:43.881Z,4.38
2023-03-12T09:11:11.948Z,4.44
2023-03-12T09:14:02.515Z,4.58
2023-03-12T09:16:25.663Z,4.38
2023-03-12T09:18:52.221Z,4.52
2023-03-12T09:21:18.878Z,4.81
2023-03-12T09:23:45.526Z,4.64
2023-03-12T09:26:12.462Z,4.72
2023-03-12T09:28:39.046Z,4.57
2023-03-12T09:31:06.089Z,4.50
2023-03-12T09:33:35.104Z,4.45
2023-03-12T09:36:02.294Z,4.68
2023-03-12T09:38:29.262Z,4.70
2023-03-12T09:40:56.640Z,4.55
2023-03-12T09:43:25.902Z,4.53
2023-03-12T09:48:34.321Z,4.49
2023-03-12T09:51:03.749Z,4.48
2023-03-12T09:53:34.647Z,4.43
2023-03-12T09:56:03.371Z,4.43
2023-03-12T09:58:34.392Z,4.54
2023-03-12T10:01:46.767Z,4.64
2023-03-12T10:04:18.335Z,4.64
2023-03-12T10:06:47.627Z,4.79
2023-03-12T10:09:26.037Z,4.82
2023-03-12T10:11:58.455Z,4.80
2023-03-12T10:14:51.172Z,4.89
2023-03-12T10:17:29.901Z,4.79
2023-03-12T10:19:56.687Z,4.86
2023-03-12T10:22:52.390Z,4.95
2023-03-12T10:25:28.967Z,5.20
2023-03-12T10:27:59.487Z,5.10
2023-03-12T10:30:29.171Z,5.20
2023-03-12T10:33:01.337Z,5.12
2023-03-12T10:35:30.495Z,5.30
2023-03-12T10:37:58.177Z,5.38
2023-03-12T10:40:26.479Z,5.65
2023-03-12T10:42:53.347Z,5.92
2023-03-12T10:45:30.961Z,6.11
2023-03-12T10:48:02.298Z,5.94
2023-03-12T10:50:30.131Z,5.84
2023-03-12T10:53:19.225Z,5.50
2023-03-12T10:55:57.856Z,5.36
2023-03-12T10:58:25.090Z,5.48
2023-03-12T11:00:58.965Z,5.81
2023-03-12T11:03:26.116Z,5.85
2023-03-12T11:05:54.068Z,5.67
2023-03-12T11:08:23.781Z,5.36
2023-03-12T11:10:50.539Z,5.37
2023-03-12T11:13:26.210Z,5.33
2023-03-12T11:15:53.362Z,5.45
2023-03-12T11:18:25.943Z,5.55
2023-03-12T11:21:12.574Z,5.75
2023-03-12T11:24:07.318Z,5.73
2023-03-12T11:26:36.841Z,5.66
2023-03-12T11:29:03.353Z,5.72
2023-03-12T11:31:41.479Z,5.79
2023-03-12T11:34:14.779Z,6.03
2023-03-12T11:36:50.317Z,6.03
2023-03-12T11:39:24.415Z,6.34
2023-03-12T11:42:02.996Z,6.53
2023-03-12T11:45:04.014Z,6.32
2023-03-12T11:47:36.280Z,6.39
2023-03-12T11:50:21.648Z,6.54
2023-03-12T11:52:57.679Z,6.27
2023-03-12T11:55:43.953Z,5.95
2023-03-12T11:58:19.503Z,6.15
2023-03-12T12:00:47.881Z,6.29
2023-03-12T12:03:17.722Z,6.37
2023-03-12T12:06:02.945Z,6.03
2023-03-12T12:10:08.266Z,6.39
2023-03-12T12:12:40.606Z,6.30
2023-03-12T12:15:14.421Z,6.41
2023-03-12T12:17:40.946Z,6.09
2023-03-12T12:20:10.647Z,6.15
2023-03-12T12:22:44.164Z,6.23
2023-03-12T12:25:26.115Z,6.32
2023-03-12T12:27:56.001Z,6.52
2023-03-12T12:30:22.520Z,6.65
2023-03-12T12:35:23.367Z,6.64
2023-03-12T12:38:12.637Z,6.53
2023-03-12T12:40:44.188Z,6.47
2023-03-12T12:43:17.807Z,6.47
2023-03-12T12:45:45.226Z,6.43
2023-03-12T12:48:17.850Z,6.47
2023-03-12T12:50:45.768Z,6.21
2023-03-12T12:53:24.053Z,6.06
2023-03-12T12:55:57.066Z,6.10
2023-03-12T12:58:27.269Z,6.08
2023-03-12T13:00:59.380Z,6.36
2023-03-12T13:03:26.537Z,6.48
2023-03-12T13:05:53.044Z,6.38
2023-03-12T13:08:38.335Z,6.49
2023-03-12T13:11:20.307Z,6.56
2023-03-12T13:13:51.734Z,6.65
2023-03-12T13:17:56.687Z,5.84
2023-03-12T13:20:27.187Z,6.35
2023-03-12T13:22:59.506Z,6.57
2023-03-12T13:25:34.916Z,6.64
2023-03-12T13:28:17.290Z,6.46
2023-03-12T13:30:47.860Z,6.36
2023-03-12T13:33:16.028Z,6.35
2023-03-12T13:35:42.722Z,6.50
2023-03-12T13:38:17.791Z,6.60
2023-03-12T13:40:50.368Z,6.65
2023-03-12T13:43:30.437Z,6.70
2023-03-12T13:46:08.044Z,6.57
2023-03-12T13:48:36.028Z,6.47
2023-03-12T13:51:16.466Z,6.44
2023-03-12T13:55:09.540Z,6.60
2023-03-12T13:57:50.193Z,6.62
2023-03-12T14:02:58.688Z,7.01
2023-03-12T14:05:26.248Z,7.12
2023-03-12T14:07:56.142Z,6.88
2023-03-12T14:10:31.793Z,6.97
2023-03-12T14:13:16.474Z,6.95
2023-03-12T14:15:58.745Z,6.88
2023-03-12T14:18:27.311Z,6.94
2023-03-12T14:21:00.943Z,6.85
2023-03-12T14:23:35.201Z,6.78
2023-03-12T14:26:04.173Z,6.80
2023-03-12T14:28:32.526Z,6.87
2023-03-12T14:31:06.961Z,7.03
2023-03-12T14:33:35.980Z,7.06
2023-03-12T14:36:28.814Z,7.20
2023-03-12T14:39:10.273Z,7.27
2023-03-12T14:44:06.454Z,6.97
2023-03-12T14:46:33.094Z,6.97
2023-03-12T14:48:59.740Z,7.01
2023-03-12T14:51:28.397Z,6.87
2023-03-12T14:53:55.837Z,6.82
2023-03-12T14:56:27.837Z,6.90
2023-03-12T14:58:54.664Z,6.96
2023-03-12T15:01:23.111Z,7.04
2023-03-12T15:03:52.466Z,6.94
2023-03-12T15:06:21.937Z,6.96
2023-03-12T15:08:49.121Z,6.83
2023-03-12T15:11:20.097Z,6.85
2023-03-12T15:13:47.395Z,6.81
2023-03-12T15:16:14.050Z,6.77
2023-03-12T15:18:40.764Z,6.73
2023-03-12T15:23:48.145Z,6.64
2023-03-12T15:26:14.711Z,6.63
2023-03-12T15:28:42.101Z,6.65
2023-03-12T15:31:13.924Z,6.75
2023-03-12T15:33:41.156Z,6.62
2023-03-12T15:36:26.925Z,6.50
2023-03-12T15:39:16.539Z,6.50
2023-03-12T15:44:42.700Z,6.19
2023-03-12T15:47:11.546Z,6.13
2023-03-12T15:49:38.739Z,6.11
2023-03-12T15:52:07.099Z,6.07
2023-03-12T15:54:35.249Z,5.92
2023-03-12T15:55:13.787Z,5.87
2023-03-12T15:57:52.208Z,5.80
2023-03-12T16:00:20.867Z,5.69
2023-03-12T16:02:52.143Z,5.62
2023-03-12T16:05:19.967Z,5.60
2023-03-12T16:07:46.845Z,5.56
2023-03-12T16:10:15.178Z,5.55
2023-03-12T16:12:43.219Z,5.58
2023-03-12T16:15:17.410Z,5.60
2023-03-12T16:17:44.191Z,5.64
2023-03-12T16:20:15.002Z,5.67
2023-03-12T16:22:41.632Z,5.66
2023-03-12T16:25:10.065Z,5.62
2023-03-12T16:27:39.177Z,5.62
2023-03-12T16:30:07.184Z,5.57
2023-03-12T16:32:33.675Z,5.57
2023-03-12T16:35:00.230Z,5.60
2023-03-12T16:37:26.872Z,5.57
2023-03-12T16:42:03.604Z,5.49
2023-03-12T16:44:32.118Z,5.44
2023-03-12T16:46:58.891Z,5.35
2023-03-12T16:49:25.547Z,5.28
2023-03-12T16:51:52.096Z,5.20
2023-03-12T16:54:18.666Z,5.12
2023-03-12T16:56:46.844Z,5.01
2023-03-12T16:59:25.349Z,4.89
2023-03-12T17:01:51.910Z,4.76
2023-03-12T17:04:18.483Z,4.64
2023-03-12T17:06:45.127Z,4.60
2023-03-12T17:09:11.638Z,4.47
2023-03-12T17:11:38.951Z,4.41
2023-03-12T17:14:15.250Z,4.47
2023-03-12T17:16:41.788Z,4.46
2023-03-12T17:19:08.316Z,4.48
2023-03-12T17:21:34.878Z,4.44
2023-03-12T17:24:01.456Z,4.42
2023-03-12T17:26:28.009Z,4.39
2023-03-12T17:28:54.589Z,4.35
2023-03-12T17:31:21.544Z,4.31
2023-03-12T17:33:48.105Z,4.25
2023-03-12T17:36:14.620Z,4.17
2023-03-12T17:38:41.209Z,4.06
2023-03-12T17:41:19.846Z,3.99
2023-03-12T17:43:50.183Z,3.89
2023-03-12T17:46:16.809Z,3.81
2023-03-12T17:48:43.335Z,3.66
2023-03-12T17:53:49.082Z,3.47
2023-03-12T17:56:17.996Z,3.45
2023-03-12T17:58:45.014Z,3.38
2023-03-12T18:01:13.469Z,3.25
2023-03-12T18:03:40.289Z,3.09
2023-03-12T18:06:07.066Z,2.97
2023-03-12T18:08:33.575Z,2.94
2023-03-12T18:11:01.754Z,2.80
2023-03-12T18:13:28.471Z,2.64
2023-03-12T18:15:56.988Z,2.58
2023-03-12T18:18:24.787Z,2.57
2023-03-12T18:20:51.783Z,2.54
2023-03-12T18:23:18.814Z,2.51
2023-03-12T18:25:46.135Z,2.52
2023-03-12T18:28:14.058Z,2.48
2023-03-12T18:30:40.644Z,2.35
2023-03-12T18:33:07.223Z,2.26
2023-03-12T18:38:13.624Z,2.32
2023-03-12T18:40:40.215Z,2.23
2023-03-12T18:43:06.694Z,2.19
2023-03-12T18:45:33.402Z,2.21
2023-03-12T18:47:59.941Z,2.31
2023-03-12T18:50:26.509Z,2.35
2023-03-12T18:52:53.042Z,2.38
2023-03-12T18:55:19.568Z,2.37
2023-03-12T18:57:47.643Z,2.34
2023-03-12T19:00:17.305Z,2.34
2023-03-12T19:02:46.522Z,2.33
2023-03-12T19:07:55.290Z,2.21
2023-03-12T19:10:21.854Z,2.08
2023-03-12T19:12:53.289Z,1.90
2023-03-12T19:15:21.947Z,1.89
2023-03-12T19:17:48.583Z,1.88
2023-03-12T19:20:15.705Z,1.81
2023-03-12T19:25:20.540Z,1.69
2023-03-12T19:27:47.135Z,1.60
2023-03-12T19:30:13.942Z,1.55
2023-03-12T19:32:44.141Z,1.51
2023-03-12T19:35:11.579Z,1.49
2023-03-12T19:37:38.163Z,1.44
2023-03-12T19:42:45.252Z,1.29
2023-03-12T19:45:11.880Z,1.28
2023-03-12T19:47:38.453Z,1.30
2023-03-12T19:50:05.225Z,1.38
2023-03-12T19:52:31.794Z,1.26
2023-03-12T19:55:04.684Z,1.17
2023-03-12T19:57:32.204Z,1.12
2023-03-12T19:59:58.772Z,1.11
2023-03-12T20:02:26.222Z,0.91
2023-03-12T20:04:53.001Z,0.80
2023-03-12T20:07:19.515Z,0.75
2023-03-12T20:09:46.017Z,0.74
2023-03-12T20:12:12.568Z,0.74
2023-03-12T20:14:41.374Z,0.71
2023-03-12T20:17:09.005Z,0.69
2023-03-12T20:19:35.616Z,0.54
2023-03-12T20:22:02.440Z,0.50
2023-03-12T20:26:15.174Z,0.51
2023-03-12T20:28:41.867Z,0.47
2023-03-12T20:31:15.206Z,0.48
2023-03-12T20:33:42.281Z,0.42
2023-03-12T20:36:10.446Z,0.41
2023-03-12T20:38:37.601Z,0.43
2023-03-12T20:41:04.732Z,0.41
2023-03-12T20:43:31.482Z,0.37
2023-03-12T20:45:58.091Z,0.33
2023-03-12T20:48:24.711Z,0.33
2023-03-12T20:50:51.385Z,0.33
2023-03-12T20:53:18.010Z,0.31
2023-03-12T20:55:44.572Z,0.23
2023-03-12T21:00:51.078Z,0.11
2023-03-12T21:03:19.261Z,0.08
2023-03-12T21:05:53.644Z,0.08
2023-03-12T21:08:20.291Z,0.09
2023-03-12T21:10:46.881Z,0.11
2023-03-12T21:13:13.429Z,0.09
2023-03-12T21:15:39.921Z,0.04
2023-03-12T21:18:06.611Z,0.04
2023-03-12T21:20:33.346Z,0.07
2023-03-12T21:23:00.927Z,0.04
2023-03-12T21:25:27.546Z,0.04
2023-03-12T21:27:54.926Z,-0.01
2023-03-12T21:30:21.591Z,-0.04
2023-03-12T21:32:48.205Z,-0.07
2023-03-12T21:35:14.942Z,-0.13
2023-03-12T21:37:41.494Z,-0.17
2023-03-12T21:40:09.225Z,-0.19
2023-03-12T21:42:35.841Z,-0.14
2023-03-12T21:45:02.346Z,-0.11
2023-03-12T21:47:28.893Z,-0.13
2023-03-12T21:49:55.457Z,-0.17
2023-03-12T21:52:22.032Z,-0.18
2023-03-12T21:54:48.563Z,-0.20
2023-03-12T21:57:15.111Z,-0.18
2023-03-12T21:59:41.610Z,-0.25
2023-03-12T22:02:11.080Z,-0.32
2023-03-12T22:04:37.719Z,-0.30
2023-03-12T22:07:04.284Z,-0.30
2023-03-12T22:09:30.820Z,-0.37
2023-03-12T22:11:57.320Z,-0.38
2023-03-12T22:14:24.326Z,-0.37
2023-03-12T22:16:50.845Z,-0.36
2023-03-12T22:19:18.342Z,-0.42
2023-03-12T22:21:44.867Z,-0.40
2023-03-12T22:24:12.672Z,-0.46
2023-03-12T22:26:39.321Z,-0.47
2023-03-12T22:29:07.047Z,-0.48
2023-03-12T22:31:33.657Z,-0.48
2023-03-12T22:34:00.321Z,-0.49
2023-03-12T22:36:26.980Z,-0.51
2023-03-12T22:38:53.578Z,-0.49
2023-03-12T22:41:27.264Z,-0.48
2023-03-12T22:43:55.124Z,-0.47
2023-03-12T22:46:22.754Z,-0.46
2023-03-12T22:48:52.520Z,-0.49
2023-03-12T22:51:19.182Z,-0.43
2023-03-12T22:53:45.666Z,-0.47
2023-03-12T22:57:47.126Z,-0.52
2023-03-12T23:00:16.402Z,-0.52
2023-03-12T23:02:42.932Z,-0.54
2023-03-12T23:05:09.532Z,-0.54
2023-03-12T23:07:36.168Z,-0.60
2023-03-12T23:10:02.859Z,-0.59
2023-03-12T23:14:01.885Z,-0.61
2023-03-12T23:16:28.630Z,-0.61
2023-03-12T23:18:56.625Z,-0.59
2023-03-12T23:21:24.301Z,-0.58
2023-03-12T23:25:12.749Z,-0.61
2023-03-12T23:27:39.291Z,-0.58
2023-03-12T23:30:06.115Z,-0.64
2023-03-12T23:32:32.740Z,-0.66
2023-03-12T23:34:59.284Z,-0.67
2023-03-12T23:40:06.627Z,-0.70
2023-03-12T23:45:12.604Z,-0.62
2023-03-12T23:47:39.172Z,-0.65
2023-03-12T23:50:06.147Z,-0.65
2023-03-12T23:52:32.656Z,-0.64
2023-03-12T23:54:59.137Z,-0.68
2023-03-12T23:59:43.324Z,-0.70
